Time;durP1;ratioP1;P1;durP2;ratioP2;P2;SDS_P1;SDS_P2;PMS_P1;PMS_P2;Temp;Humidity;BMP_temperature;BMP_pressure;BME280_temperature;BME280_humidity;BME280_pressure;Samples;Min_cycle;Max_cycle;Signal;HPM_P1;HPM_P2
2022/05/20 00:01:51;;;;;;;11.68;3.15;;;;;;;;;;5053838;28;20028;-68
2022/05/20 00:04:17;;;;;;;9.73;2.42;;;;;;;;;;5054274;28;20428;-69
2022/05/20 00:06:43;;;;;;;5.30;2.25;;;;;;;;;;5054491;28;20105;-68
2022/05/20 00:09:09;;;;;;;5.60;2.13;;;;;;;;;;5054513;28;20116;-68
2022/05/20 00:11:36;;;;;;;6.78;2.10;;;;;;;;;;5054867;28;20028;-68
2022/05/20 00:14:02;;;;;;;7.32;2.13;;;;;;;;;;5054352;28;20448;-68
2022/05/20 00:16:29;;;;;;;4.93;2.00;;;;;;;;;;5054303;28;20044;-69
2022/05/20 00:18:55;;;;;;;4.45;1.70;;;;;;;;;;5053649;28;20041;-68
2022/05/20 00:21:21;;;;;;;9.02;2.28;;;;;;;;;;5054206;28;20017;-68
2022/05/20 00:23:47;;;;;;;6.97;2.00;;;;;;;;;;5054112;28;20040;-69
2022/05/20 00:26:13;;;;;;;8.18;2.00;;;;;;;;;;5054101;28;20028;-70
2022/05/20 00:28:40;;;;;;;11.77;2.97;;;;;;;;;;5054271;28;20029;-69
2022/05/20 00:31:08;;;;;;;5.35;1.98;;;;;;;;;;5054592;28;20040;-68
2022/05/20 00:33:35;;;;;;;4.38;1.90;;;;;;;;;;5054208;28;20385;-68
2022/05/20 00:36:01;;;;;;;5.30;2.00;;;;;;;;;;5054534;28;20032;-68
2022/05/20 00:38:27;;;;;;;6.35;1.88;;;;;;;;;;5054531;28;20033;-68
2022/05/20 00:40:55;;;;;;;6.97;1.90;;;;;;;;;;5054110;28;20386;-69
2022/05/20 00:43:21;;;;;;;8.68;1.85;;;;;;;;;;5053961;28;20025;-69
2022/05/20 00:45:47;;;;;;;3.90;1.75;;;;;;;;;;5054138;28;20043;-69
2022/05/20 00:48:13;;;;;;;8.65;2.05;;;;;;;;;;5053910;28;20027;-69
2022/05/20 00:50:42;;;;;;;11.27;1.80;;;;;;;;;;5053989;28;20094;-68
2022/05/20 00:53:09;;;;;;;4.50;1.85;;;;;;;;;;5053789;28;20080;-69
2022/05/20 00:55:35;;;;;;;5.57;2.53;;;;;;;;;;5053615;28;20044;-68
2022/05/20 00:58:05;;;;;;;3.80;2.20;;;;;;;;;;5052341;28;20028;-68
2022/05/20 01:00:32;;;;;;;7.38;1.85;;;;;;;;;;5050934;28;20070;-69
2022/05/20 01:03:04;;;;;;;5.03;2.20;;;;;;;;;;5050343;28;20025;-69
2022/05/20 01:05:32;;;;;;;4.13;2.25;;;;;;;;;;5052762;28;20446;-69
2022/05/20 01:07:59;;;;;;;7.55;2.42;;;;;;;;;;5053873;28;20385;-69
2022/05/20 01:10:25;;;;;;;6.07;1.85;;;;;;;;;;5053498;28;20037;-68
2022/05/20 01:12:52;;;;;;;4.38;1.92;;;;;;;;;;5053580;28;20021;-69
2022/05/20 01:15:18;;;;;;;4.05;1.92;;;;;;;;;;5053660;28;20071;-69
2022/05/20 01:17:45;;;;;;;8.32;2.17;;;;;;;;;;5053493;28;20037;-68
2022/05/20 01:20:17;;;;;;;6.22;2.15;;;;;;;;;;5053387;28;20174;-68
2022/05/20 01:22:55;;;;;;;5.70;2.13;;;;;;;;;;5053221;28;20051;-69
2022/05/20 01:25:22;;;;;;;4.90;1.90;;;;;;;;;;5053538;28;20074;-69
2022/05/20 01:27:48;;;;;;;7.78;2.28;;;;;;;;;;5052746;28;20033;-70
2022/05/20 01:30:16;;;;;;;7.50;1.70;;;;;;;;;;5052781;28;20115;-70
2022/05/20 01:32:42;;;;;;;6.82;2.10;;;;;;;;;;5052192;28;20052;-69
2022/05/20 01:35:12;;;;;;;5.57;1.95;;;;;;;;;;5052534;28;20033;-68
2022/05/20 01:37:38;;;;;;;6.22;2.03;;;;;;;;;;5053251;28;20068;-70
2022/05/20 01:40:06;;;;;;;8.32;1.88;;;;;;;;;;5051772;28;20385;-68
2022/05/20 01:42:46;;;;;;;10.20;2.35;;;;;;;;;;5052841;28;20604;-70
2022/05/20 01:45:21;;;;;;;7.03;1.92;;;;;;;;;;5052685;28;20025;-68
2022/05/20 01:47:55;;;;;;;6.60;2.00;;;;;;;;;;5053019;28;20488;-68
2022/05/20 01:50:25;;;;;;;10.60;1.90;;;;;;;;;;5052905;28;20032;-68
2022/05/20 01:52:55;;;;;;;9.18;1.80;;;;;;;;;;5052277;28;20135;-68
2022/05/20 01:55:32;;;;;;;11.00;1.83;;;;;;;;;;5052438;28;20171;-68
2022/05/20 01:58:34;;;;;;;5.20;1.75;;;;;;;;;;5052473;28;20047;-68
2022/05/20 02:01:02;;;;;;;7.32;2.45;;;;;;;;;;5050211;28;20471;-68
2022/05/20 02:03:37;;;;;;;11.13;2.00;;;;;;;;;;5051604;28;20508;-68
2022/05/20 02:06:10;;;;;;;9.80;2.20;;;;;;;;;;5052307;28;20096;-68
2022/05/20 02:08:54;;;;;;;4.93;1.90;;;;;;;;;;5052398;28;20017;-69
2022/05/20 02:11:26;;;;;;;10.73;2.25;;;;;;;;;;5052173;28;20025;-69
2022/05/20 02:13:59;;;;;;;15.25;2.00;;;;;;;;;;5052334;28;20045;-69
2022/05/20 02:16:37;;;;;;;3.85;2.10;;;;;;;;;;5052221;28;20028;-70
2022/05/20 02:19:08;;;;;;;5.47;2.35;;;;;;;;;;5052251;28;20029;-68
2022/05/20 02:21:36;;;;;;;8.67;2.20;;;;;;;;;;5052915;28;20355;-68
2022/05/20 02:24:05;;;;;;;11.45;2.40;;;;;;;;;;5052208;28;20035;-69
2022/05/20 02:26:33;;;;;;;7.95;2.20;;;;;;;;;;5052833;28;20032;-68
2022/05/20 02:29:04;;;;;;;5.32;2.15;;;;;;;;;;5053001;28;20033;-68
2022/05/20 02:31:56;;;;;;;5.50;2.30;;;;;;;;;;5052455;28;20025;-68
2022/05/20 02:34:22;;;;;;;4.63;2.00;;;;;;;;;;5052661;28;20051;-69
2022/05/20 02:36:48;;;;;;;10.25;2.65;;;;;;;;;;5052471;28;20076;-69
2022/05/20 02:39:18;;;;;;;18.42;3.35;;;;;;;;;;5052760;28;20055;-69
2022/05/20 02:41:47;;;;;;;8.52;2.08;;;;;;;;;;5052801;28;20394;-69
2022/05/20 02:44:14;;;;;;;7.88;1.98;;;;;;;;;;5056439;28;20029;-69
2022/05/20 02:46:40;;;;;;;6.88;2.35;;;;;;;;;;5056583;28;20040;-69
2022/05/20 02:49:07;;;;;;;6.47;2.15;;;;;;;;;;5056451;28;20377;-69
2022/05/20 02:51:33;;;;;;;6.95;2.05;;;;;;;;;;5055933;28;20029;-69
2022/05/20 02:53:59;;;;;;;8.50;2.47;;;;;;;;;;5055659;28;20048;-69
2022/05/20 02:56:26;;;;;;;4.15;1.80;;;;;;;;;;5056371;28;20056;-69
2022/05/20 03:04:22;;;;;;;8.00;2.20;;;;;;;;;;5055950;28;20036;-70
2022/05/20 03:06:49;;;;;;;5.38;2.00;;;;;;;;;;5056253;28;20031;-68
2022/05/20 03:09:16;;;;;;;8.93;2.40;;;;;;;;;;5055925;28;20027;-68
2022/05/20 03:11:43;;;;;;;7.78;2.38;;;;;;;;;;5056230;28;20078;-68
2022/05/20 03:14:11;;;;;;;4.55;2.03;;;;;;;;;;5055747;28;20029;-68
2022/05/20 03:16:37;;;;;;;7.07;2.50;;;;;;;;;;5055958;28;20017;-68
2022/05/20 03:19:04;;;;;;;6.88;2.22;;;;;;;;;;5056031;28;20051;-68
2022/05/20 03:21:31;;;;;;;4.88;2.05;;;;;;;;;;5056002;28;20413;-69
2022/05/20 03:23:59;;;;;;;10.10;2.00;;;;;;;;;;5055247;28;20389;-70
2022/05/20 03:26:25;;;;;;;10.82;2.28;;;;;;;;;;5054976;28;20070;-69
2022/05/20 03:28:51;;;;;;;9.45;1.95;;;;;;;;;;5055176;28;20048;-69
2022/05/20 03:31:17;;;;;;;6.13;1.98;;;;;;;;;;5054836;28;20032;-69
2022/05/20 03:33:44;;;;;;;7.55;2.10;;;;;;;;;;5054734;28;20029;-69
2022/05/20 03:36:10;;;;;;;8.30;2.42;;;;;;;;;;5054333;28;20081;-68
2022/05/20 03:38:36;;;;;;;5.22;1.80;;;;;;;;;;5055378;28;20028;-69
2022/05/20 03:41:03;;;;;;;6.72;2.13;;;;;;;;;;5055437;28;20021;-68
2022/05/20 03:43:29;;;;;;;7.10;2.08;;;;;;;;;;5055178;28;20397;-70
2022/05/20 03:45:55;;;;;;;6.35;2.10;;;;;;;;;;5055787;28;20021;-68
2022/05/20 03:48:22;;;;;;;3.92;1.80;;;;;;;;;;5055572;28;20023;-68
2022/05/20 03:50:48;;;;;;;5.70;2.13;;;;;;;;;;5055297;28;20025;-68
2022/05/20 03:53:14;;;;;;;2.95;1.58;;;;;;;;;;5055144;28;20091;-68
2022/05/20 03:55:40;;;;;;;8.48;2.30;;;;;;;;;;5054298;28;20083;-68
2022/05/20 03:58:07;;;;;;;11.70;2.00;;;;;;;;;;5054629;28;20037;-68
2022/05/20 04:01:56;;;;;;;7.97;2.38;;;;;;;;;;5054790;28;20037;-69
2022/05/20 04:03:19;;;;;;;14.52;2.78;;;;;;;;;;5054767;28;20478;-69
2022/05/20 04:05:45;;;;;;;25.27;2.92;;;;;;;;;;5054941;28;20036;-68
2022/05/20 04:08:13;;;;;;;52.67;4.65;;;;;;;;;;5054762;28;20475;-69
2022/05/20 04:10:39;;;;;;;49.08;4.38;;;;;;;;;;5054535;28;20037;-69
2022/05/20 04:13:06;;;;;;;20.42;2.70;;;;;;;;;;5054546;28;20470;-69
2022/05/20 04:15:32;;;;;;;17.00;3.22;;;;;;;;;;5054654;28;20045;-69
2022/05/20 04:17:58;;;;;;;11.45;2.03;;;;;;;;;;5054532;28;20029;-68
2022/05/20 04:20:24;;;;;;;9.07;2.05;;;;;;;;;;5054182;28;20052;-68
2022/05/20 04:22:50;;;;;;;8.38;2.05;;;;;;;;;;5054214;28;20074;-69
2022/05/20 04:25:16;;;;;;;8.90;2.20;;;;;;;;;;5054543;28;20381;-68
2022/05/20 04:27:42;;;;;;;16.15;2.70;;;;;;;;;;5054388;28;20562;-69
2022/05/20 04:30:09;;;;;;;16.90;2.65;;;;;;;;;;5053880;28;20071;-68
2022/05/20 04:32:35;;;;;;;10.60;3.00;;;;;;;;;;5054480;28;20363;-68
2022/05/20 04:35:01;;;;;;;9.15;2.38;;;;;;;;;;5054228;28;20044;-68
2022/05/20 04:37:27;;;;;;;6.15;2.28;;;;;;;;;;5054043;28;20036;-69
2022/05/20 04:39:54;;;;;;;11.48;2.60;;;;;;;;;;5053976;28;20067;-68
2022/05/20 04:47:51;;;;;;;14.25;2.70;;;;;;;;;;5054070;28;20163;-68
2022/05/20 04:50:17;;;;;;;9.88;2.55;;;;;;;;;;5054059;28;20401;-68
2022/05/20 04:52:43;;;;;;;9.73;2.08;;;;;;;;;;5054296;28;20106;-68
2022/05/20 04:55:09;;;;;;;10.75;2.60;;;;;;;;;;5053646;28;20037;-68
2022/05/20 04:57:41;;;;;;;11.18;2.45;;;;;;;;;;5053479;28;20094;-68
2022/05/20 05:00:10;;;;;;;15.60;2.72;;;;;;;;;;5053858;28;20025;-68
2022/05/20 05:02:36;;;;;;;9.57;2.33;;;;;;;;;;5053853;28;20094;-68
2022/05/20 05:05:03;;;;;;;9.55;2.40;;;;;;;;;;5053637;28;20032;-68
2022/05/20 05:07:29;;;;;;;11.82;2.88;;;;;;;;;;5053456;28;20024;-68
2022/05/20 05:09:56;;;;;;;8.43;2.50;;;;;;;;;;5053085;28;20037;-69
2022/05/20 05:12:22;;;;;;;12.48;2.70;;;;;;;;;;5052558;28;20385;-68
2022/05/20 05:14:52;;;;;;;10.43;2.67;;;;;;;;;;5053844;28;20033;-69
2022/05/20 05:18:09;;;;;;;8.73;2.60;;;;;;;;;;5053778;28;20453;-69
2022/05/20 05:20:09;;;;;;;13.77;3.10;;;;;;;;;;5053321;28;20044;-69
2022/05/20 05:22:35;;;;;;;10.20;2.60;;;;;;;;;;5053296;28;20363;-70
2022/05/20 05:25:03;;;;;;;17.05;4.32;;;;;;;;;;5053077;28;20492;-68
2022/05/20 05:27:29;;;;;;;12.20;2.55;;;;;;;;;;5052910;28;20081;-68
2022/05/20 05:29:55;;;;;;;13.00;2.20;;;;;;;;;;5053359;28;20116;-68
2022/05/20 05:32:21;;;;;;;4.53;2.13;;;;;;;;;;5053537;28;20032;-68
2022/05/20 05:34:47;;;;;;;7.03;2.60;;;;;;;;;;5053492;28;20041;-68
2022/05/20 05:37:14;;;;;;;9.45;2.33;;;;;;;;;;5053727;28;20028;-69
2022/05/20 05:39:40;;;;;;;6.32;1.60;;;;;;;;;;5053428;28;20435;-69
2022/05/20 05:42:06;;;;;;;7.68;1.75;;;;;;;;;;5052826;28;20025;-68
2022/05/20 05:44:32;;;;;;;6.53;1.58;;;;;;;;;;5053112;28;20025;-68
2022/05/20 05:46:58;;;;;;;10.68;1.80;;;;;;;;;;5053430;28;20556;-68
2022/05/20 05:49:24;;;;;;;7.75;2.00;;;;;;;;;;5053593;28;20382;-69
2022/05/20 05:51:50;;;;;;;4.68;1.70;;;;;;;;;;5052914;28;20108;-68
2022/05/20 05:54:17;;;;;;;6.43;1.60;;;;;;;;;;5053089;28;20446;-68
2022/05/20 05:56:43;;;;;;;10.45;2.10;;;;;;;;;;5052990;28;20079;-68
2022/05/20 05:59:09;;;;;;;3.80;1.52;;;;;;;;;;5053077;28;20405;-69
2022/05/20 06:01:35;;;;;;;9.10;1.80;;;;;;;;;;5053011;28;20405;-68
2022/05/20 06:04:01;;;;;;;11.10;2.35;;;;;;;;;;5053019;28;20021;-68
2022/05/20 06:06:27;;;;;;;5.07;1.75;;;;;;;;;;5053136;28;20029;-68
2022/05/20 06:08:53;;;;;;;9.82;1.70;;;;;;;;;;5052907;28;20031;-68
2022/05/20 06:11:20;;;;;;;6.22;2.63;;;;;;;;;;5052554;28;20017;-68
2022/05/20 06:13:46;;;;;;;5.70;1.80;;;;;;;;;;5051028;28;20473;-69
2022/05/20 06:16:17;;;;;;;8.25;1.75;;;;;;;;;;5052413;28;20497;-68
2022/05/20 06:18:43;;;;;;;10.15;1.90;;;;;;;;;;5051313;28;20021;-69
2022/05/20 06:21:09;;;;;;;3.88;1.55;;;;;;;;;;5044706;28;20446;-68
2022/05/20 06:23:35;;;;;;;4.57;1.60;;;;;;;;;;5033763;28;20045;-70
2022/05/20 06:26:01;;;;;;;9.13;1.58;;;;;;;;;;5032238;28;20060;-69
2022/05/20 06:28:27;;;;;;;6.30;1.60;;;;;;;;;;5039951;28;21035;-68
2022/05/20 06:30:53;;;;;;;10.82;1.90;;;;;;;;;;5033040;28;20037;-69
2022/05/20 06:33:19;;;;;;;6.88;1.92;;;;;;;;;;5046379;28;20020;-68
2022/05/20 06:41:15;;;;;;;10.35;1.95;;;;;;;;;;5048934;28;20087;-67
2022/05/20 06:43:41;;;;;;;7.57;1.77;;;;;;;;;;5051492;28;20029;-68
2022/05/20 06:46:08;;;;;;;7.53;2.10;;;;;;;;;;5050385;28;20462;-68
2022/05/20 06:48:43;;;;;;;7.70;1.73;;;;;;;;;;5051402;28;20448;-69
2022/05/20 06:51:10;;;;;;;7.32;1.80;;;;;;;;;;5050613;28;20027;-69
2022/05/20 06:53:36;;;;;;;13.80;1.92;;;;;;;;;;5050617;28;20053;-69
2022/05/20 06:56:02;;;;;;;6.30;1.80;;;;;;;;;;5050310;28;20468;-68
2022/05/20 06:58:30;;;;;;;5.80;1.85;;;;;;;;;;5051373;28;20021;-67
2022/05/20 07:00:57;;;;;;;8.05;1.90;;;;;;;;;;5050889;28;20481;-69
2022/05/20 07:03:23;;;;;;;11.55;2.25;;;;;;;;;;5051012;28;20376;-68
2022/05/20 07:05:49;;;;;;;5.30;1.70;;;;;;;;;;5050463;28;20100;-68
2022/05/20 07:08:16;;;;;;;5.28;1.60;;;;;;;;;;5050664;28;20066;-68
2022/05/20 07:10:42;;;;;;;13.13;2.97;;;;;;;;;;5052032;28;20074;-69
2022/05/20 07:13:08;;;;;;;9.25;1.85;;;;;;;;;;5052046;28;20021;-68
2022/05/20 07:15:34;;;;;;;9.95;1.70;;;;;;;;;;5052171;28;20116;-68
2022/05/20 07:18:00;;;;;;;5.40;1.77;;;;;;;;;;5052205;28;20110;-68
2022/05/20 07:20:26;;;;;;;6.72;2.00;;;;;;;;;;5052206;28;20021;-66
2022/05/20 07:22:52;;;;;;;5.93;1.48;;;;;;;;;;5052207;28;20032;-66
2022/05/20 07:25:19;;;;;;;10.57;2.20;;;;;;;;;;5052229;28;20386;-67
2022/05/20 07:27:46;;;;;;;6.82;2.13;;;;;;;;;;5052318;28;20028;-69
2022/05/20 07:30:12;;;;;;;4.20;2.00;;;;;;;;;;5054214;28;20078;-66
2022/05/20 07:32:39;;;;;;;4.85;1.40;;;;;;;;;;5054580;28;20048;-66
2022/05/20 07:35:05;;;;;;;5.47;1.50;;;;;;;;;;5055922;28;20037;-66
2022/05/20 07:37:32;;;;;;;6.65;1.58;;;;;;;;;;5055917;28;20021;-67
2022/05/20 07:39:59;;;;;;;6.30;1.70;;;;;;;;;;5054666;28;20033;-66
2022/05/20 07:42:25;;;;;;;10.05;2.35;;;;;;;;;;5054825;28;20029;-66
2022/05/20 07:44:51;;;;;;;8.82;1.90;;;;;;;;;;5054841;28;20028;-67
2022/05/20 07:47:18;;;;;;;6.28;1.90;;;;;;;;;;5055211;28;20028;-67
2022/05/20 07:49:44;;;;;;;5.95;1.90;;;;;;;;;;5055602;28;20052;-66
2022/05/20 07:52:12;;;;;;;5.50;1.63;;;;;;;;;;5055058;28;20477;-66
2022/05/20 07:54:41;;;;;;;5.55;1.48;;;;;;;;;;5055497;28;20036;-66
2022/05/20 07:57:11;;;;;;;9.23;1.90;;;;;;;;;;5055068;28;20025;-65
2022/05/20 07:59:46;;;;;;;7.80;1.80;;;;;;;;;;5055522;28;20398;-66
2022/05/20 08:02:13;;;;;;;4.88;1.27;;;;;;;;;;5055326;28;20435;-67
2022/05/20 08:04:53;;;;;;;4.18;1.58;;;;;;;;;;5055176;28;20092;-67
2022/05/20 08:07:20;;;;;;;3.70;1.60;;;;;;;;;;5055011;28;20024;-67
2022/05/20 08:09:46;;;;;;;4.03;1.27;;;;;;;;;;5055069;28;20025;-67
2022/05/20 08:12:12;;;;;;;4.95;1.67;;;;;;;;;;5055210;28;20025;-67
2022/05/20 08:14:38;;;;;;;6.45;1.58;;;;;;;;;;5055081;28;20112;-66
2022/05/20 08:17:04;;;;;;;5.75;1.95;;;;;;;;;;5055089;28;20021;-66
2022/05/20 08:19:31;;;;;;;7.70;1.60;;;;;;;;;;5053281;28;20025;-67
2022/05/20 08:21:57;;;;;;;2.95;1.48;;;;;;;;;;5054824;28;20028;-66
2022/05/20 08:24:23;;;;;;;11.73;1.98;;;;;;;;;;5054408;28;20067;-65
2022/05/20 08:26:50;;;;;;;9.00;1.67;;;;;;;;;;5054028;28;20397;-67
2022/05/20 08:29:16;;;;;;;5.35;1.27;;;;;;;;;;5054511;28;20029;-67
2022/05/20 08:31:43;;;;;;;15.40;1.90;;;;;;;;;;5053922;28;20025;-66
2022/05/20 08:34:09;;;;;;;4.72;1.70;;;;;;;;;;5053848;28;20064;-66
2022/05/20 08:36:36;;;;;;;5.40;1.48;;;;;;;;;;5054099;28;20095;-66
2022/05/20 08:39:02;;;;;;;5.47;1.48;;;;;;;;;;5052579;28;20195;-66
2022/05/20 08:41:36;;;;;;;5.68;1.73;;;;;;;;;;5053582;28;20029;-66
2022/05/20 08:44:03;;;;;;;7.72;1.73;;;;;;;;;;5054203;28;20087;-66
2022/05/20 08:46:30;;;;;;;9.38;1.55;;;;;;;;;;5054326;28;20100;-66
2022/05/20 08:48:58;;;;;;;7.55;1.65;;;;;;;;;;5054194;28;20086;-66
2022/05/20 08:51:28;;;;;;;6.38;1.80;;;;;;;;;;5054100;28;20021;-67
2022/05/20 08:53:54;;;;;;;6.35;2.05;;;;;;;;;;5053329;28;20052;-66
2022/05/20 08:56:21;;;;;;;9.07;1.70;;;;;;;;;;5053620;28;20032;-67
2022/05/20 08:58:50;;;;;;;8.35;1.50;;;;;;;;;;5053845;28;20045;-66
2022/05/20 09:01:25;;;;;;;9.45;1.50;;;;;;;;;;5053632;28;20032;-66
2022/05/20 09:03:51;;;;;;;5.50;1.42;;;;;;;;;;5053271;28;20381;-70
2022/05/20 09:06:17;;;;;;;4.38;1.70;;;;;;;;;;5053556;28;20029;-67
2022/05/20 09:08:45;;;;;;;4.63;1.60;;;;;;;;;;5053528;28;20021;-67
2022/05/20 09:11:17;;;;;;;5.45;1.90;;;;;;;;;;5053815;28;20100;-67
2022/05/20 09:16:30;;;;;;;5.78;1.52;;;;;;;;;;5053607;28;20043;-75
2022/05/20 09:19:24;;;;;;;7.25;1.80;;;;;;;;;;5053103;28;20499;-66
2022/05/20 09:22:04;;;;;;;6.65;1.73;;;;;;;;;;5053277;28;20036;-67
2022/05/20 09:24:41;;;;;;;6.40;1.98;;;;;;;;;;5053695;28;20017;-66
2022/05/20 09:27:12;;;;;;;4.20;1.67;;;;;;;;;;5052837;28;20028;-74
2022/05/20 09:29:44;;;;;;;6.50;1.65;;;;;;;;;;5053420;28;20021;-67
2022/05/20 09:32:33;;;;;;;5.72;1.80;;;;;;;;;;5053286;28;20110;-67
2022/05/20 09:35:01;;;;;;;5.10;1.60;;;;;;;;;;5053238;28;20036;-74
2022/05/20 09:37:29;;;;;;;5.47;1.90;;;;;;;;;;5053331;28;20395;-75
2022/05/20 09:39:55;;;;;;;5.85;1.70;;;;;;;;;;5053207;28;20489;-67
2022/05/20 09:42:29;;;;;;;8.23;1.92;;;;;;;;;;5053475;28;20033;-68
2022/05/20 09:44:56;;;;;;;6.50;1.70;;;;;;;;;;5053234;28;20394;-67
2022/05/20 09:47:26;;;;;;;5.32;1.60;;;;;;;;;;5053626;28;20405;-68
2022/05/20 09:49:54;;;;;;;6.72;2.05;;;;;;;;;;5053351;28;20037;-68
2022/05/20 09:52:23;;;;;;;8.52;1.60;;;;;;;;;;5052619;28;20045;-69
2022/05/20 09:54:54;;;;;;;4.90;2.00;;;;;;;;;;5053094;28;20059;-69
2022/05/20 09:57:20;;;;;;;11.73;1.60;;;;;;;;;;5053227;28;20049;-68
2022/05/20 09:59:52;;;;;;;6.70;1.88;;;;;;;;;;5053278;28;20035;-73
2022/05/20 10:02:18;;;;;;;;;;;;;;;;;;5053586;28;20070;-80
2022/05/20 10:05:02;;;;;;;10.43;1.80;;;;;;;;;;5053206;28;19912;-78
2022/05/20 10:07:34;;;;;;;7.50;1.65;;;;;;;;;;5052417;28;20060;-74
2022/05/20 10:10:00;;;;;;;;;;;;;;;;;;5053678;28;20067;-66
2022/05/20 10:12:29;;;;;;;7.10;1.85;;;;;;;;;;5052506;28;20372;-66
2022/05/20 10:14:59;;;;;;;8.80;2.05;;;;;;;;;;5052681;28;20570;-77
2022/05/20 10:17:28;;;;;;;5.70;1.75;;;;;;;;;;5052934;28;20025;-67
2022/05/20 10:20:00;;;;;;;4.35;1.70;;;;;;;;;;5052827;28;20481;-67
2022/05/20 10:22:26;;;;;;;;;;;;;;;;;;5053340;28;20059;-67
2022/05/20 10:25:03;;;;;;;11.10;2.08;;;;;;;;;;5053185;28;19948;-67
2022/05/20 10:27:50;;;;;;;5.65;1.73;;;;;;;;;;5052835;28;20029;-66
2022/05/20 10:33:09;;;;;;;10.68;1.90;;;;;;;;;;5053044;28;20072;-67
2022/05/20 10:35:51;;;;;;;5.93;1.80;;;;;;;;;;5052594;28;20047;-67
2022/05/20 10:38:17;;;;;;;7.67;2.10;;;;;;;;;;5052814;28;20025;-67
2022/05/20 10:40:46;;;;;;;9.23;1.85;;;;;;;;;;5052784;28;20674;-69
2022/05/20 10:43:12;;;;;;;8.23;1.70;;;;;;;;;;5052258;28;20017;-67
2022/05/20 10:48:45;;;;;;;7.72;1.92;;;;;;;;;;5052524;28;20500;-67
2022/05/20 10:51:17;;;;;;;11.63;2.42;;;;;;;;;;5052846;28;20466;-67
2022/05/20 10:53:43;;;;;;;6.03;1.83;;;;;;;;;;5052633;28;20091;-67
2022/05/20 10:56:09;;;;;;;6.90;2.10;;;;;;;;;;5050885;28;20064;-66
2022/05/20 10:58:49;;;;;;;5.70;1.80;;;;;;;;;;5051894;28;20368;-66
2022/05/20 11:01:27;;;;;;;7.38;1.70;;;;;;;;;;5052023;28;20024;-68
2022/05/20 11:04:05;;;;;;;7.63;1.90;;;;;;;;;;5053648;28;20021;-67
2022/05/20 11:06:34;;;;;;;5.88;1.75;;;;;;;;;;5056300;28;20035;-66
2022/05/20 11:09:20;;;;;;;5.05;1.60;;;;;;;;;;5055812;28;20029;-67
2022/05/20 11:12:00;;;;;;;7.47;1.98;;;;;;;;;;5054136;28;20061;-67
2022/05/20 11:14:53;;;;;;;8.13;1.75;;;;;;;;;;5032565;28;20515;-67
2022/05/20 11:17:22;;;;;;;4.72;1.75;;;;;;;;;;5033408;28;20132;-67
2022/05/20 11:20:06;;;;;;;7.70;2.00;;;;;;;;;;5036129;28;20021;-67
2022/05/20 11:22:51;;;;;;;9.25;2.00;;;;;;;;;;5035184;28;20018;-67
2022/05/20 11:25:35;;;;;;;5.15;1.67;;;;;;;;;;5032896;28;20038;-67
2022/05/20 11:28:01;;;;;;;8.23;2.13;;;;;;;;;;5031977;28;20116;-67
2022/05/20 11:30:46;;;;;;;6.72;1.70;;;;;;;;;;5034559;28;20104;-67
2022/05/20 11:33:19;;;;;;;8.55;1.80;;;;;;;;;;5035863;28;20438;-68
2022/05/20 11:35:48;;;;;;;28.35;2.42;;;;;;;;;;5035778;28;20037;-66
2022/05/20 11:38:33;;;;;;;4.07;1.58;;;;;;;;;;5034805;28;20025;-67
2022/05/20 11:41:34;;;;;;;11.98;2.05;;;;;;;;;;5032916;28;20398;-66
2022/05/20 11:44:09;;;;;;;10.68;2.40;;;;;;;;;;5010490;28;20037;-67
2022/05/20 11:46:53;;;;;;;7.65;1.60;;;;;;;;;;5031850;28;20069;-67
2022/05/20 11:49:32;;;;;;;10.75;2.42;;;;;;;;;;5035481;28;20029;-67
2022/05/20 11:52:01;;;;;;;9.85;2.15;;;;;;;;;;5035128;28;20021;-67
2022/05/20 11:54:31;;;;;;;7.45;2.20;;;;;;;;;;5035101;28;20107;-66
2022/05/20 11:57:18;;;;;;;9.48;1.65;;;;;;;;;;5035136;28;20481;-72
2022/05/20 11:59:50;;;;;;;9.45;1.73;;;;;;;;;;5035094;28;20075;-67
2022/05/20 12:02:18;;;;;;;10.13;1.83;;;;;;;;;;5034737;28;20022;-68
2022/05/20 12:04:44;;;;;;;7.28;2.00;;;;;;;;;;5034444;28;20052;-68
2022/05/20 12:07:15;;;;;;;8.65;2.00;;;;;;;;;;5032604;28;20032;-69
2022/05/20 12:09:46;;;;;;;12.77;2.05;;;;;;;;;;5033426;28;20108;-69
2022/05/20 12:12:24;;;;;;;7.70;1.80;;;;;;;;;;5032536;28;20101;-69
2022/05/20 12:15:09;;;;;;;5.57;1.90;;;;;;;;;;5032114;28;20822;-70
2022/05/20 12:17:41;;;;;;;13.02;1.90;;;;;;;;;;5034664;28;20029;-69
2022/05/20 12:25:47;;;;;;;8.90;1.80;;;;;;;;;;5034080;28;20032;-69
2022/05/20 12:28:22;;;;;;;8.07;1.95;;;;;;;;;;5034503;28;20033;-69
2022/05/20 12:31:07;;;;;;;4.68;2.00;;;;;;;;;;5035106;28;20034;-70
2022/05/20 12:33:50;;;;;;;6.50;1.70;;;;;;;;;;5034469;28;20080;-68
2022/05/20 12:36:16;;;;;;;8.20;1.70;;;;;;;;;;5034042;28;20111;-69
2022/05/20 12:38:42;;;;;;;4.18;1.88;;;;;;;;;;5033763;28;20057;-67
2022/05/20 12:41:43;;;;;;;6.50;1.55;;;;;;;;;;5033774;28;20481;-70
2022/05/20 12:44:18;;;;;;;7.63;2.20;;;;;;;;;;5021159;28;20034;-74
2022/05/20 12:46:50;;;;;;;8.02;1.80;;;;;;;;;;5034406;28;20033;-67
2022/05/20 12:49:16;;;;;;;4.78;1.45;;;;;;;;;;5033236;28;20033;-67
2022/05/20 12:51:45;;;;;;;5.78;1.70;;;;;;;;;;5033461;28;20026;-67
2022/05/20 12:54:17;;;;;;;6.75;1.52;;;;;;;;;;5033017;28;20120;-67
2022/05/20 12:56:43;;;;;;;7.60;1.40;;;;;;;;;;5033817;28;20021;-68
2022/05/20 12:59:13;;;;;;;9.52;1.63;;;;;;;;;;5031279;28;20378;-68
2022/05/20 13:01:43;;;;;;;5.90;1.60;;;;;;;;;;5031179;28;20021;-68
2022/05/20 13:04:12;;;;;;;3.47;1.40;;;;;;;;;;5033240;28;20021;-68
2022/05/20 13:06:38;;;;;;;4.25;1.20;;;;;;;;;;5033349;28;20037;-67
2022/05/20 13:09:08;;;;;;;5.65;1.17;;;;;;;;;;5033901;28;20022;-67
2022/05/20 13:11:44;;;;;;;3.10;1.50;;;;;;;;;;5033931;28;20033;-68
2022/05/20 13:14:12;;;;;;;5.10;1.88;;;;;;;;;;5033582;28;20049;-67
2022/05/20 13:16:39;;;;;;;5.68;1.27;;;;;;;;;;5034089;28;20029;-68
2022/05/20 13:19:10;;;;;;;5.65;1.70;;;;;;;;;;5033885;28;20033;-67
2022/05/20 13:21:39;;;;;;;3.03;1.25;;;;;;;;;;5033542;28;20482;-67
2022/05/20 13:24:16;;;;;;;4.70;1.60;;;;;;;;;;5031255;28;20040;-68
2022/05/20 13:26:42;;;;;;;9.43;1.63;;;;;;;;;;5030775;28;20084;-67
2022/05/20 13:29:13;;;;;;;8.85;1.55;;;;;;;;;;5031214;28;20025;-68
2022/05/20 13:31:40;;;;;;;6.70;1.35;;;;;;;;;;5033260;28;20425;-74
2022/05/20 13:34:06;;;;;;;3.90;1.60;;;;;;;;;;5033707;28;20025;-68
2022/05/20 13:36:35;;;;;;;4.28;1.58;;;;;;;;;;5033632;28;20037;-67
2022/05/20 13:39:02;;;;;;;4.90;1.30;;;;;;;;;;5032581;28;20017;-68
2022/05/20 13:41:29;;;;;;;6.30;1.70;;;;;;;;;;5031311;28;20085;-67
2022/05/20 13:43:55;;;;;;;7.80;1.55;;;;;;;;;;5032716;28;20028;-67
2022/05/20 13:49:18;;;;;;;7.72;1.67;;;;;;;;;;5053029;28;20155;-66
2022/05/20 13:51:50;;;;;;;16.30;1.88;;;;;;;;;;5052558;28;20021;-67
2022/05/20 13:54:26;;;;;;;6.60;1.60;;;;;;;;;;5052402;28;20120;-67
2022/05/20 13:56:53;;;;;;;2.35;1.10;;;;;;;;;;5052877;28;20049;-75
2022/05/20 13:59:24;;;;;;;4.50;1.70;;;;;;;;;;5052591;28;20056;-67
2022/05/20 14:02:01;;;;;;;3.95;1.48;;;;;;;;;;5052531;28;20362;-74
2022/05/20 14:04:34;;;;;;;5.03;1.42;;;;;;;;;;5052025;28;20025;-68
2022/05/20 14:07:02;;;;;;;7.28;1.48;;;;;;;;;;5053048;28;20367;-75
2022/05/20 14:09:28;;;;;;;6.30;1.30;;;;;;;;;;5052104;28;20059;-68
2022/05/20 14:11:54;;;;;;;9.85;1.33;;;;;;;;;;5052540;28;20508;-68
2022/05/20 14:14:28;;;;;;;4.13;1.20;;;;;;;;;;5051757;28;20083;-67
2022/05/20 14:16:58;;;;;;;4.80;1.15;;;;;;;;;;5051323;28;20021;-68
2022/05/20 14:19:40;;;;;;;2.97;1.33;;;;;;;;;;5052122;28;20032;-67
2022/05/20 14:22:08;;;;;;;7.00;1.38;;;;;;;;;;5049996;28;20025;-67
2022/05/20 14:24:38;;;;;;;4.25;1.30;;;;;;;;;;5051550;28;20021;-71
2022/05/20 14:27:05;;;;;;;2.58;0.98;;;;;;;;;;5052155;28;20025;-66
2022/05/20 14:29:33;;;;;;;5.32;1.10;;;;;;;;;;5051892;28;20064;-67
2022/05/20 14:32:10;;;;;;;8.10;1.40;;;;;;;;;;5051330;28;20531;-74
2022/05/20 14:34:38;;;;;;;7.18;1.48;;;;;;;;;;5052378;28;20033;-68
2022/05/20 14:37:09;;;;;;;2.25;1.13;;;;;;;;;;5050671;28;20466;-67
2022/05/20 14:39:35;;;;;;;5.75;1.50;;;;;;;;;;5055294;28;20036;-66
2022/05/20 14:42:20;;;;;;;8.52;1.40;;;;;;;;;;5056856;28;20051;-67
2022/05/20 14:44:50;;;;;;;4.03;1.20;;;;;;;;;;5056444;28;20039;-67
2022/05/20 14:47:21;;;;;;;5.07;1.40;;;;;;;;;;5056596;28;20021;-67
2022/05/20 14:49:47;;;;;;;;;;;;;;;;;;5057065;28;20389;-66
2022/05/20 14:52:26;;;;;;;6.55;1.40;;;;;;;;;;5055967;28;19924;-66
2022/05/20 14:54:52;;;;;;;3.22;1.30;;;;;;;;;;5056319;28;20068;-76
2022/05/20 14:57:27;;;;;;;2.30;1.15;;;;;;;;;;5056391;28;20021;-65
2022/05/20 15:00:11;;;;;;;2.70;1.10;;;;;;;;;;5055586;28;20031;-66
2022/05/20 15:02:38;;;;;;;3.83;1.38;;;;;;;;;;5056104;28;20029;-65
2022/05/20 15:05:04;;;;;;;4.70;1.23;;;;;;;;;;5055957;28;20048;-66
2022/05/20 15:07:30;;;;;;;6.15;1.35;;;;;;;;;;5055608;28;20029;-65
2022/05/20 15:09:56;;;;;;;5.22;1.33;;;;;;;;;;5055146;28;20056;-68
2022/05/20 15:12:23;;;;;;;7.50;1.35;;;;;;;;;;5055234;28;20028;-65
2022/05/20 15:14:49;;;;;;;5.15;1.30;;;;;;;;;;5055340;28;20048;-65
2022/05/20 15:17:18;;;;;;;3.13;1.15;;;;;;;;;;5055553;28;20025;-65
2022/05/20 15:19:45;;;;;;;2.97;1.05;;;;;;;;;;5055550;28;20044;-66
2022/05/20 15:22:12;;;;;;;3.90;1.20;;;;;;;;;;5055494;28;20031;-67
2022/05/20 15:24:44;;;;;;;5.90;1.05;;;;;;;;;;5055125;28;20025;-66
2022/05/20 15:27:32;;;;;;;4.22;1.20;;;;;;;;;;5055384;28;20308;-65
2022/05/20 15:29:59;;;;;;;6.82;1.33;;;;;;;;;;5055298;28;20599;-65